createdAt,value
2019-04-30T00:01:07.427Z,38.00
2019-04-30T00:03:39.569Z,37.37
2019-04-30T00:06:11.379Z,37.17
2019-04-30T00:08:41.021Z,37.10
2019-04-30T00:11:15.156Z,35.97
2019-04-30T00:13:42.475Z,38.83
2019-04-30T00:16:12.282Z,42.87
2019-04-30T00:18:54.737Z,40.53
2019-04-30T00:21:15.227Z,39.50
2019-04-30T00:23:45.898Z,39.93
2019-04-30T00:26:17.265Z,41.00
2019-04-30T00:28:47.881Z,44.20
2019-04-30T00:31:23.657Z,42.67
2019-04-30T00:33:52.718Z,40.77
2019-04-30T00:36:21.544Z,41.03
2019-04-30T00:38:51.203Z,42.43
2019-04-30T00:41:20.914Z,42.73
2019-04-30T00:43:50.881Z,44.98
2019-04-30T00:46:25.634Z,44.97
2019-04-30T00:48:53.341Z,48.17
2019-04-30T00:51:26.039Z,45.03
2019-04-30T00:53:55.801Z,45.07
2019-04-30T00:56:28.194Z,45.93
2019-04-30T00:58:57.782Z,43.97
2019-04-30T01:02:06.169Z,49.83
2019-04-30T01:04:44.968Z,42.27
2019-04-30T01:07:15.619Z,48.50
2019-04-30T01:09:49.576Z,44.93
2019-04-30T01:12:24.623Z,44.65
2019-04-30T01:14:49.783Z,45.97
2019-04-30T01:17:19.587Z,49.03
2019-04-30T01:19:51.111Z,43.07
2019-04-30T01:22:27.843Z,47.53
2019-04-30T01:24:52.244Z,40.87
2019-04-30T01:27:22.095Z,42.40
2019-04-30T01:29:51.935Z,43.50
2019-04-30T01:32:21.736Z,47.53
2019-04-30T01:34:53.841Z,41.37
2019-04-30T01:37:28.298Z,44.97
2019-04-30T01:39:54.362Z,41.50
2019-04-30T01:42:24.212Z,39.10
2019-04-30T01:44:54.301Z,40.20
2019-04-30T01:47:27.880Z,43.67
2019-04-30T01:49:55.821Z,42.17
2019-04-30T01:52:49.209Z,40.60
2019-04-30T01:55:20.446Z,41.68
2019-04-30T01:58:03.311Z,41.27
2019-04-30T02:00:41.615Z,38.78
2019-04-30T02:03:11.657Z,37.10
2019-04-30T02:05:41.452Z,42.67
2019-04-30T02:08:11.079Z,38.63
2019-04-30T02:10:41.034Z,39.10
2019-04-30T02:13:10.765Z,43.33
2019-04-30T02:15:40.550Z,42.17
2019-04-30T02:18:11.235Z,38.98
2019-04-30T02:20:41.002Z,40.53
2019-04-30T02:23:11.574Z,39.94
2019-04-30T02:25:41.313Z,38.80
2019-04-30T02:28:11.158Z,39.60
2019-04-30T02:30:40.928Z,44.03
2019-04-30T02:33:10.762Z,45.60
2019-04-30T02:35:53.728Z,42.93
2019-04-30T02:38:44.761Z,46.33
2019-04-30T02:41:14.919Z,44.90
2019-04-30T02:43:45.228Z,42.00
2019-04-30T02:46:19.043Z,45.27
2019-04-30T02:48:50.334Z,48.67
2019-04-30T02:51:22.813Z,44.63
2019-04-30T02:54:14.076Z,45.03
2019-04-30T02:56:45.736Z,44.60
2019-04-30T02:59:15.649Z,50.50
2019-04-30T03:01:45.587Z,47.77
2019-04-30T03:04:15.303Z,45.87
2019-04-30T03:06:45.256Z,44.75
2019-04-30T03:09:14.962Z,49.40
2019-04-30T03:11:45.472Z,46.20
2019-04-30T03:14:15.251Z,50.33
2019-04-30T03:16:59.837Z,46.60
2019-04-30T03:19:46.303Z,44.33
2019-04-30T03:22:20.363Z,48.70
2019-04-30T03:24:50.399Z,45.27
2019-04-30T03:27:21.946Z,45.60
2019-04-30T03:29:51.759Z,45.00
2019-04-30T03:32:23.092Z,45.67
2019-04-30T03:34:53.034Z,40.63
2019-04-30T03:37:22.694Z,42.87
2019-04-30T03:39:52.313Z,40.10
2019-04-30T03:42:21.920Z,39.90
2019-04-30T03:44:51.753Z,43.52
2019-04-30T03:47:21.441Z,41.00
2019-04-30T03:49:51.136Z,45.93
2019-04-30T03:52:20.992Z,43.03
2019-04-30T03:54:50.673Z,42.93
2019-04-30T03:57:20.755Z,43.63
2019-04-30T03:59:50.354Z,39.90
2019-04-30T04:02:40.955Z,42.40
2019-04-30T04:05:21.722Z,42.33
2019-04-30T04:08:16.435Z,43.10
2019-04-30T04:10:53.189Z,45.53
2019-04-30T04:13:23.007Z,39.83
2019-04-30T04:15:52.721Z,44.45
2019-04-30T04:18:22.447Z,47.10
2019-04-30T04:21:07.629Z,44.83
2019-04-30T04:23:24.230Z,43.90
2019-04-30T04:25:53.957Z,42.33
2019-04-30T04:28:23.700Z,43.07
2019-04-30T04:30:53.479Z,46.87
2019-04-30T04:33:23.154Z,41.43
2019-04-30T04:35:52.911Z,44.58
2019-04-30T04:38:23.748Z,39.03
2019-04-30T04:40:54.489Z,42.10
2019-04-30T04:43:24.516Z,43.80
2019-04-30T04:45:54.259Z,41.13
2019-04-30T04:48:24.016Z,40.07
2019-04-30T04:50:54.036Z,39.47
2019-04-30T04:53:23.717Z,41.63
2019-04-30T04:55:54.508Z,42.87
2019-04-30T04:58:24.267Z,42.53
2019-04-30T05:00:54.050Z,37.77
2019-04-30T05:03:42.803Z,38.38
2019-04-30T05:06:12.555Z,44.30
2019-04-30T05:08:42.237Z,40.75
2019-04-30T05:11:11.873Z,38.97
2019-04-30T05:13:41.795Z,40.15
2019-04-30T05:16:11.668Z,37.70
2019-04-30T05:18:41.725Z,41.07
2019-04-30T05:21:11.463Z,39.20
2019-04-30T05:23:42.696Z,41.53
2019-04-30T05:26:12.505Z,41.40
2019-04-30T05:28:43.555Z,40.40
2019-04-30T05:31:14.146Z,45.35
2019-04-30T05:33:43.982Z,42.80
2019-04-30T05:36:13.680Z,43.37
2019-04-30T05:38:43.460Z,40.73
2019-04-30T05:41:13.100Z,36.40
2019-04-30T05:43:42.916Z,37.95
2019-04-30T05:46:14.147Z,39.17
2019-04-30T05:48:44.968Z,33.70
2019-04-30T05:51:14.717Z,39.30
2019-04-30T05:53:44.542Z,32.70
2019-04-30T05:56:14.187Z,37.88
2019-04-30T05:58:45.055Z,38.40
2019-04-30T06:01:15.585Z,34.80
2019-04-30T06:03:48.473Z,34.27
2019-04-30T06:06:19.560Z,32.53
2019-04-30T06:09:06.219Z,34.50
2019-04-30T06:11:46.096Z,35.63
2019-04-30T06:14:24.111Z,35.53
2019-04-30T06:17:09.786Z,34.23
2019-04-30T06:19:39.550Z,35.97
2019-04-30T06:22:11.127Z,28.95
2019-04-30T06:24:41.065Z,31.87
2019-04-30T06:27:11.057Z,32.97
2019-04-30T06:29:40.814Z,27.83
2019-04-30T06:32:11.080Z,34.53
2019-04-30T06:34:41.909Z,31.40
2019-04-30T06:37:11.860Z,32.17
2019-04-30T06:39:41.709Z,32.40
2019-04-30T06:42:12.918Z,32.23
2019-04-30T06:44:43.790Z,31.00
2019-04-30T06:47:13.846Z,32.70
2019-04-30T06:49:44.128Z,31.70
2019-04-30T06:52:20.503Z,36.23
2019-04-30T06:54:45.489Z,31.43
2019-04-30T06:57:15.266Z,32.93
2019-04-30T06:59:45.020Z,30.90
2019-04-30T07:02:14.816Z,35.98
2019-04-30T07:04:44.628Z,38.73
2019-04-30T07:07:19.299Z,33.30
2019-04-30T07:09:56.782Z,39.80
2019-04-30T07:12:34.186Z,41.40
2019-04-30T07:15:03.624Z,40.73
2019-04-30T07:17:33.437Z,45.13
2019-04-30T07:20:03.316Z,49.23
2019-04-30T07:22:40.166Z,48.13
2019-04-30T07:25:04.473Z,43.68
2019-04-30T07:27:34.224Z,46.77
2019-04-30T07:30:04.289Z,43.53
2019-04-30T07:32:35.092Z,42.37
2019-04-30T07:35:05.651Z,40.57
2019-04-30T07:37:35.483Z,45.30
2019-04-30T07:40:06.050Z,43.97
2019-04-30T07:42:39.836Z,35.88
2019-04-30T07:45:09.571Z,33.90
2019-04-30T07:47:40.054Z,32.70
2019-04-30T07:50:11.288Z,34.53
2019-04-30T07:52:58.019Z,34.08
2019-04-30T07:55:12.625Z,32.80
2019-04-30T07:57:43.284Z,33.50
2019-04-30T08:00:13.115Z,34.53
2019-04-30T08:02:50.516Z,31.53
2019-04-30T08:05:26.623Z,31.70
2019-04-30T08:08:14.418Z,29.23
2019-04-30T08:10:29.693Z,30.73
2019-04-30T08:13:08.616Z,31.10
2019-04-30T08:15:31.997Z,31.62
2019-04-30T08:18:05.711Z,28.00
2019-04-30T08:20:33.355Z,26.73
2019-04-30T08:23:15.701Z,24.75
2019-04-30T08:25:35.772Z,26.80
2019-04-30T08:28:05.555Z,27.17
2019-04-30T08:30:35.378Z,32.27
2019-04-30T08:33:05.064Z,31.60
2019-04-30T08:35:34.872Z,32.15
2019-04-30T08:38:05.514Z,34.35
2019-04-30T08:40:35.275Z,30.75
2019-04-30T08:43:05.130Z,31.35
2019-04-30T08:45:34.955Z,34.80
2019-04-30T08:48:04.893Z,31.87
2019-04-30T08:50:34.732Z,32.67
2019-04-30T08:53:04.688Z,33.25
2019-04-30T08:55:34.917Z,32.67
2019-04-30T08:58:10.016Z,35.58
2019-04-30T09:00:36.116Z,32.00
2019-04-30T09:03:05.951Z,36.60
2019-04-30T09:05:53.287Z,35.70
2019-04-30T09:08:23.072Z,33.50
2019-04-30T09:10:52.821Z,34.10
2019-04-30T09:13:22.564Z,31.50
2019-04-30T09:15:52.224Z,33.23
2019-04-30T09:18:22.576Z,30.43
2019-04-30T09:20:52.389Z,32.35
2019-04-30T09:23:22.109Z,29.90
2019-04-30T09:25:51.911Z,27.63
2019-04-30T09:28:21.647Z,24.98
2019-04-30T09:30:52.474Z,28.93
2019-04-30T09:33:22.393Z,28.05
2019-04-30T09:35:53.968Z,27.60
2019-04-30T09:38:23.646Z,26.68
2019-04-30T09:40:53.691Z,28.60
2019-04-30T09:43:24.714Z,29.02
2019-04-30T09:45:55.629Z,26.68
2019-04-30T09:48:30.318Z,28.20
2019-04-30T09:51:00.264Z,30.65
2019-04-30T09:53:31.066Z,29.14
2019-04-30T09:56:01.249Z,28.25
2019-04-30T09:58:31.123Z,27.98
2019-04-30T10:01:01.878Z,26.77
2019-04-30T10:03:32.467Z,28.07
2019-04-30T10:06:02.788Z,25.95
2019-04-30T10:08:45.195Z,26.62
2019-04-30T10:11:17.599Z,32.73
2019-04-30T10:13:47.525Z,28.90
2019-04-30T10:16:43.359Z,28.05
2019-04-30T10:19:14.964Z,25.90
2019-04-30T10:21:45.924Z,28.35
2019-04-30T10:24:16.023Z,25.47
2019-04-30T10:26:45.859Z,26.73
2019-04-30T10:29:16.851Z,27.27
2019-04-30T10:31:48.945Z,23.80
2019-04-30T10:34:18.965Z,26.05
2019-04-30T10:36:49.588Z,27.22
2019-04-30T10:39:21.718Z,26.52
2019-04-30T10:41:52.010Z,24.12
2019-04-30T10:44:22.902Z,24.10
2019-04-30T10:46:52.929Z,27.22
2019-04-30T10:49:22.677Z,28.60
2019-04-30T10:51:53.408Z,29.07
2019-04-30T10:54:26.497Z,32.14
2019-04-30T10:56:55.544Z,24.98
2019-04-30T10:59:25.640Z,26.25
2019-04-30T11:01:55.833Z,23.27
2019-04-30T11:04:25.515Z,28.13
2019-04-30T11:06:55.639Z,24.07
2019-04-30T11:09:25.706Z,25.17
2019-04-30T11:11:55.403Z,25.57
2019-04-30T11:14:25.047Z,25.83
2019-04-30T11:16:54.957Z,26.17
2019-04-30T11:19:25.038Z,25.03
2019-04-30T11:21:55.881Z,25.63
2019-04-30T11:24:35.910Z,24.93
2019-04-30T11:26:59.513Z,23.37
2019-04-30T11:29:30.782Z,19.52
2019-04-30T11:32:21.591Z,21.97
2019-04-30T11:34:51.532Z,26.13
2019-04-30T11:37:21.532Z,24.27
2019-04-30T11:39:51.442Z,22.97
2019-04-30T11:42:21.306Z,24.92
2019-04-30T11:44:51.095Z,24.25
2019-04-30T11:47:31.354Z,24.12
2019-04-30T11:50:01.289Z,22.10
2019-04-30T11:52:31.298Z,21.53
2019-04-30T11:55:01.151Z,22.73
2019-04-30T11:57:31.477Z,18.28
2019-04-30T12:00:01.086Z,19.10
2019-04-30T12:02:52.941Z,20.50
2019-04-30T12:05:20.909Z,23.57
2019-04-30T12:08:12.418Z,20.15
2019-04-30T12:10:49.605Z,21.70
2019-04-30T12:13:44.108Z,22.57
2019-04-30T12:16:13.910Z,22.98
2019-04-30T12:18:43.685Z,20.50
2019-04-30T12:21:13.490Z,19.77
2019-04-30T12:23:43.227Z,20.17
2019-04-30T12:26:13.090Z,19.00
2019-04-30T12:28:42.804Z,17.83
2019-04-30T12:31:14.214Z,21.50
2019-04-30T12:33:44.098Z,19.03
2019-04-30T12:36:13.920Z,23.73
2019-04-30T12:38:43.674Z,21.57
2019-04-30T12:41:13.445Z,20.10
2019-04-30T12:43:43.272Z,17.40
2019-04-30T12:46:13.141Z,17.70
2019-04-30T12:49:04.740Z,20.23
2019-04-30T12:51:46.411Z,17.63
2019-04-30T12:54:42.002Z,14.28
2019-04-30T12:57:19.226Z,16.63
2019-04-30T12:59:49.008Z,16.27
2019-04-30T13:02:19.204Z,12.07
2019-04-30T13:04:49.440Z,14.63
2019-04-30T13:07:20.989Z,16.33
2019-04-30T13:09:52.054Z,14.83
2019-04-30T13:12:22.612Z,15.43
2019-04-30T13:14:54.835Z,16.00
2019-04-30T13:17:25.686Z,18.93
2019-04-30T13:19:55.536Z,14.63
2019-04-30T13:22:25.269Z,17.43
2019-04-30T13:24:55.051Z,13.70
2019-04-30T13:27:25.426Z,13.43
2019-04-30T13:30:03.295Z,13.87
2019-04-30T13:32:39.463Z,15.07
2019-04-30T13:35:09.414Z,17.03
2019-04-30T13:37:48.964Z,14.33
2019-04-30T13:40:39.019Z,14.93
2019-04-30T13:43:09.035Z,12.43
2019-04-30T13:45:38.867Z,14.10
2019-04-30T13:48:09.001Z,11.57
2019-04-30T13:50:39.203Z,14.77
2019-04-30T13:53:08.989Z,11.33
2019-04-30T13:55:45.531Z,13.77
2019-04-30T13:58:11.698Z,12.13
2019-04-30T14:00:41.507Z,13.83
2019-04-30T14:03:29.044Z,13.80
2019-04-30T14:05:59.416Z,15.53
2019-04-30T14:08:34.319Z,12.77
2019-04-30T14:11:04.101Z,16.82
2019-04-30T14:13:33.867Z,13.30
2019-04-30T14:16:03.632Z,12.27
2019-04-30T14:18:34.112Z,20.10
2019-04-30T14:21:05.236Z,14.35
2019-04-30T14:23:35.003Z,14.95
2019-04-30T14:26:04.846Z,13.18
2019-04-30T14:28:34.543Z,13.70
2019-04-30T14:31:04.753Z,11.85
2019-04-30T14:33:34.500Z,15.23
2019-04-30T14:36:04.637Z,14.03
2019-04-30T14:38:34.554Z,13.03
2019-04-30T14:41:05.141Z,18.05
2019-04-30T14:43:52.114Z,16.17
2019-04-30T14:46:41.691Z,13.53
2019-04-30T14:49:36.111Z,14.53
2019-04-30T14:52:06.327Z,18.30
2019-04-30T14:55:01.046Z,16.77
2019-04-30T14:57:56.148Z,12.93
2019-04-30T15:00:43.983Z,14.70
2019-04-30T15:03:14.901Z,14.23
2019-04-30T15:05:49.451Z,14.43
2019-04-30T15:08:16.231Z,12.10
2019-04-30T15:10:46.688Z,12.33
2019-04-30T15:13:16.432Z,13.00
2019-04-30T15:15:46.542Z,15.83
2019-04-30T15:18:16.374Z,15.75
2019-04-30T15:20:46.308Z,12.90
2019-04-30T15:23:34.649Z,15.47
2019-04-30T15:26:04.467Z,16.25
2019-04-30T15:28:34.282Z,16.17
2019-04-30T15:31:04.155Z,17.07
2019-04-30T15:33:47.679Z,16.75
2019-04-30T15:36:20.754Z,16.12
2019-04-30T15:39:19.408Z,22.10
2019-04-30T15:41:49.919Z,15.90
2019-04-30T15:44:19.784Z,16.23
2019-04-30T15:46:51.242Z,15.57
2019-04-30T15:49:20.951Z,19.00
2019-04-30T15:51:50.707Z,16.10
2019-04-30T15:54:20.992Z,16.27
2019-04-30T15:56:50.927Z,22.77
2019-04-30T15:59:31.730Z,15.43
2019-04-30T16:02:06.030Z,18.53
2019-04-30T16:05:12.874Z,19.65
2019-04-30T16:07:58.768Z,16.20
2019-04-30T16:10:58.569Z,17.80
2019-04-30T16:13:30.848Z,16.43
2019-04-30T16:16:00.623Z,14.60
2019-04-30T16:18:40.332Z,16.17
2019-04-30T16:21:10.076Z,17.60
2019-04-30T16:23:39.802Z,17.77
2019-04-30T16:26:10.489Z,15.25
2019-04-30T16:28:40.279Z,16.10
2019-04-30T16:31:10.150Z,18.97
2019-04-30T16:33:40.230Z,16.90
2019-04-30T16:36:09.958Z,18.83
2019-04-30T16:38:39.700Z,19.02
2019-04-30T16:41:09.453Z,19.23
2019-04-30T16:43:39.308Z,18.83
2019-04-30T16:46:09.163Z,19.67
2019-04-30T16:48:39.079Z,17.77
2019-04-30T16:51:11.671Z,16.87
2019-04-30T16:53:41.702Z,20.80
2019-04-30T16:56:11.735Z,21.07
2019-04-30T16:59:00.302Z,19.57
2019-04-30T17:01:31.206Z,22.13
2019-04-30T17:04:10.084Z,18.83
2019-04-30T17:06:42.660Z,17.95
2019-04-30T17:09:21.684Z,21.30
2019-04-30T17:12:00.340Z,19.20
2019-04-30T17:14:30.791Z,24.27
2019-04-30T17:17:00.678Z,23.93
2019-04-30T17:19:30.414Z,25.10
2019-04-30T17:22:00.548Z,25.73
2019-04-30T17:24:30.586Z,24.47
2019-04-30T17:27:00.431Z,24.77
2019-04-30T17:29:31.195Z,27.13
2019-04-30T17:32:01.201Z,23.17
2019-04-30T17:34:30.981Z,23.27
2019-04-30T17:37:00.662Z,24.77
2019-04-30T17:39:32.055Z,25.27
2019-04-30T17:42:01.848Z,24.23
2019-04-30T17:44:31.780Z,25.97
2019-04-30T17:47:01.498Z,27.53
2019-04-30T17:49:31.429Z,23.87
2019-04-30T17:52:01.458Z,26.80
2019-04-30T17:54:31.343Z,25.83
2019-04-30T17:57:10.497Z,25.90
2019-04-30T17:59:45.255Z,24.87
2019-04-30T18:02:16.734Z,27.23
2019-04-30T18:04:46.486Z,25.02
2019-04-30T18:07:16.278Z,27.47
2019-04-30T18:09:46.181Z,25.77
2019-04-30T18:12:19.915Z,25.03
2019-04-30T18:14:49.719Z,25.82
2019-04-30T18:17:20.825Z,25.33
2019-04-30T18:20:09.008Z,25.40
2019-04-30T18:22:56.706Z,26.17
2019-04-30T18:25:40.105Z,26.27
2019-04-30T18:28:09.916Z,26.50
2019-04-30T18:30:40.899Z,26.60
2019-04-30T18:33:17.749Z,25.65
2019-04-30T18:35:48.654Z,24.80
2019-04-30T18:38:18.589Z,24.50
2019-04-30T18:40:49.580Z,23.63
2019-04-30T18:43:20.694Z,23.80
2019-04-30T18:45:50.642Z,22.93
2019-04-30T18:48:20.398Z,21.67
2019-04-30T18:50:50.920Z,27.27
2019-04-30T18:53:24.108Z,25.17
2019-04-30T18:55:54.971Z,27.40
2019-04-30T18:58:36.505Z,27.57
2019-04-30T19:00:56.336Z,27.60
2019-04-30T19:03:26.211Z,25.40
2019-04-30T19:06:00.540Z,24.40
2019-04-30T19:08:36.084Z,26.10
2019-04-30T19:11:22.333Z,29.83
2019-04-30T19:14:01.744Z,24.40
2019-04-30T19:17:09.558Z,24.23
2019-04-30T19:19:49.589Z,27.43
2019-04-30T19:22:19.645Z,25.70
2019-04-30T19:24:58.236Z,23.33
2019-04-30T19:27:21.140Z,24.27
2019-04-30T19:29:51.709Z,21.90
2019-04-30T19:32:22.508Z,23.73
2019-04-30T19:34:52.231Z,22.63
2019-04-30T19:37:22.737Z,25.65
2019-04-30T19:39:52.538Z,23.20
2019-04-30T19:42:22.368Z,22.03
2019-04-30T19:44:58.968Z,22.90
2019-04-30T19:47:23.559Z,25.10
2019-04-30T19:49:53.371Z,23.80
2019-04-30T19:52:23.169Z,21.93
2019-04-30T19:54:52.937Z,25.67
2019-04-30T19:57:22.754Z,24.77
2019-04-30T19:59:53.252Z,21.47
2019-04-30T20:02:23.200Z,25.80
2019-04-30T20:04:53.085Z,21.40
2019-04-30T20:07:23.875Z,25.32
2019-04-30T20:10:03.252Z,24.07
2019-04-30T20:12:26.080Z,22.70
2019-04-30T20:14:55.862Z,26.97
2019-04-30T20:17:25.686Z,23.60
2019-04-30T20:19:55.555Z,22.23
2019-04-30T20:22:25.470Z,22.87
2019-04-30T20:24:55.196Z,23.37
2019-04-30T20:27:25.159Z,25.40
2019-04-30T20:29:54.867Z,22.57
2019-04-30T20:32:35.427Z,23.37
2019-04-30T20:34:56.260Z,21.27
2019-04-30T20:37:26.006Z,24.80
2019-04-30T20:40:00.826Z,20.37
2019-04-30T20:42:30.730Z,24.98
2019-04-30T20:45:03.577Z,24.60
2019-04-30T20:47:33.118Z,27.30
2019-04-30T20:50:03.072Z,24.93
2019-04-30T20:52:32.901Z,26.13
2019-04-30T20:55:02.899Z,25.77
2019-04-30T20:57:32.708Z,23.27
2019-04-30T21:00:02.435Z,25.43
2019-04-30T21:02:33.476Z,28.77
2019-04-30T21:05:03.261Z,24.50
2019-04-30T21:07:33.338Z,27.50
2019-04-30T21:10:02.991Z,25.30
2019-04-30T21:12:33.039Z,32.65
2019-04-30T21:15:02.824Z,26.40
2019-04-30T21:17:33.092Z,26.97
2019-04-30T21:20:03.035Z,25.30
2019-04-30T21:22:32.877Z,25.37
2019-04-30T21:25:02.588Z,26.68
2019-04-30T21:27:32.446Z,29.80
2019-04-30T21:30:02.183Z,30.13
2019-04-30T21:32:50.717Z,27.73
2019-04-30T21:35:38.526Z,24.07
2019-04-30T21:38:09.402Z,25.27
2019-04-30T21:40:39.522Z,27.53
2019-04-30T21:43:09.349Z,29.87
2019-04-30T21:45:39.847Z,26.00
2019-04-30T21:48:09.669Z,26.53
2019-04-30T21:50:39.891Z,27.52
2019-04-30T21:53:10.011Z,27.53
2019-04-30T21:55:40.032Z,27.80
2019-04-30T21:58:09.867Z,27.63
2019-04-30T22:01:04.699Z,30.90
2019-04-30T22:03:36.054Z,25.73
2019-04-30T22:06:06.013Z,27.47
2019-04-30T22:08:35.835Z,28.37
2019-04-30T22:11:05.704Z,24.07
2019-04-30T22:13:35.391Z,31.80
2019-04-30T22:16:05.209Z,30.00
2019-04-30T22:18:35.653Z,30.35
2019-04-30T22:21:05.422Z,29.00
2019-04-30T22:23:35.163Z,27.70
2019-04-30T22:26:04.953Z,31.80
2019-04-30T22:28:34.722Z,30.30
2019-04-30T22:31:04.541Z,31.15
2019-04-30T22:33:34.282Z,29.60
2019-04-30T22:36:18.925Z,28.50
2019-04-30T22:39:09.261Z,29.63
2019-04-30T22:41:39.771Z,30.10
2019-04-30T22:44:09.765Z,34.70
2019-04-30T22:46:39.604Z,31.62
2019-04-30T22:49:09.337Z,31.60
2019-04-30T22:51:39.002Z,36.10
2019-04-30T22:54:08.753Z,29.30
2019-04-30T22:56:38.500Z,31.37
2019-04-30T22:59:08.441Z,32.80
2019-04-30T23:01:59.947Z,33.27
2019-04-30T23:04:43.897Z,32.03
2019-04-30T23:07:13.530Z,34.67
2019-04-30T23:09:43.320Z,33.97
2019-04-30T23:12:13.107Z,34.23
2019-04-30T23:14:42.820Z,33.03
2019-04-30T23:17:12.583Z,34.67
2019-04-30T23:19:49.531Z,32.43
2019-04-30T23:22:19.143Z,32.23
2019-04-30T23:24:48.977Z,35.58
2019-04-30T23:27:19.058Z,35.93
2019-04-30T23:29:49.067Z,36.40
2019-04-30T23:32:18.881Z,38.47
2019-04-30T23:34:48.519Z,36.53
2019-04-30T23:37:18.212Z,31.37
2019-04-30T23:39:48.059Z,31.90
2019-04-30T23:42:17.759Z,38.13
2019-04-30T23:44:47.515Z,35.97
2019-04-30T23:47:17.294Z,35.80
2019-04-30T23:49:46.965Z,34.23
2019-04-30T23:52:16.700Z,34.23
2019-04-30T23:54:46.511Z,34.43
2019-04-30T23:57:16.257Z,40.13
2019-04-30T23:59:46.003Z,32.13
